Stow, Ohio
Current Conditions -  °F | °C
As of 12:54 AM on Sunday 26 Oct 2014 (Local Time) from KAKR Reporting Station
Clear Clear  
Wind Chill: 52°   Ceiling: Unl
Heat Index: 52°   Visibility: 10mi
Dew Point: 32°   Wind: 7mph
Humidity: 47%   Direction: 280°W
Pressure: 29.82"   Gusts: NA
Location:  41.17°N, 81.44°W
Report Text: KAKR 260454Z AUTO 28006KT 10SM CLR 11/00 A2982 RMK AO2 SLP094 T01110000 402220061
Loading
Personal Weather Stations






























Interactive Weather Map
Tropical Storm Tracking
New forecast layout! Learn more

10-Day Weather Forecast

Advertisements
Track Severe Weather on mobile